Time;durP1;ratioP1;P1;durP2;ratioP2;P2;SDS_P1;SDS_P2;PMS_P1;PMS_P2;Temp;Humidity;BMP_temperature;BMP_pressure;BME280_temperature;BME280_humidity;BME280_pressure;Samples;Min_cycle;Max_cycle;Signal;HPM_P1;HPM_P2
2023/03/19 00:05:17;;;;;;;34.7;17.6;;;;;;;2.4;61.9;98910;;;;
2023/03/19 00:16:17;;;;;;;34.7;17.6;;;;;;;2;63.5;98920;;;;
2023/03/19 00:26:17;;;;;;;34.7;17.6;;;;;;;1.7;65;98920;;;;
2023/03/19 00:37:17;;;;;;;42.5;24.8;;;;;;;1.4;65.1;98920;;;;
2023/03/19 00:47:17;;;;;;;42.5;24.8;;;;;;;1.3;68.2;98930;;;;
2023/03/19 00:58:17;;;;;;;42.5;24.8;;;;;;;1.1;69.5;98910;;;;
2023/03/19 01:08:17;;;;;;;35.7;22;;;;;;;1;69.4;98910;;;;
2023/03/19 01:18:17;;;;;;;35.7;22;;;;;;;0.9;69.5;98900;;;;
2023/03/19 01:29:17;;;;;;;35.7;22;;;;;;;0.7;70.2;98890;;;;
2023/03/19 01:39:17;;;;;;;36.2;18.2;;;;;;;0.7;70.3;98900;;;;
2023/03/19 01:50:18;;;;;;;36.2;18.2;;;;;;;0.8;68.7;98890;;;;
2023/03/19 02:00:17;;;;;;;36.2;18.2;;;;;;;0.7;68.3;98900;;;;
2023/03/19 02:11:17;;;;;;;26;14.6;;;;;;;0.4;68.4;98910;;;;
2023/03/19 02:21:17;;;;;;;26;14.6;;;;;;;0.4;71.5;98900;;;;
2023/03/19 02:31:17;;;;;;;26;14.6;;;;;;;0.4;70.9;98900;;;;
2023/03/19 02:41:17;;;;;;;28.2;15.9;;;;;;;0.8;68.6;98890;;;;
2023/03/19 02:51:18;;;;;;;28.2;15.9;;;;;;;0.5;73.1;98920;;;;
2023/03/19 03:02:17;;;;;;;36.3;18.6;;;;;;;0.4;73.8;98920;;;;
2023/03/19 03:12:17;;;;;;;36.3;18.6;;;;;;;0.2;73.3;98930;;;;
2023/03/19 03:22:17;;;;;;;36.3;18.6;;;;;;;0;73.5;98930;;;;
2023/03/19 03:33:17;;;;;;;34.7;21.7;;;;;;;0;75.2;98930;;;;
2023/03/19 03:44:17;;;;;;;34.7;21.7;;;;;;;-0.1;75.6;98940;;;;
2023/03/19 03:55:17;;;;;;;34.7;21.7;;;;;;;-0.2;76.3;98950;;;;
2023/03/19 04:05:17;;;;;;;41.6;22.8;;;;;;;-0.4;76.2;98950;;;;
2023/03/19 04:15:17;;;;;;;41.6;22.8;;;;;;;-0.4;77.3;98940;;;;
2023/03/19 04:26:17;;;;;;;41.6;22.8;;;;;;;-0.3;77.1;98940;;;;
2023/03/19 04:37:17;;;;;;;30;18.3;;;;;;;-0.2;76.9;98930;;;;
2023/03/19 04:48:17;;;;;;;30;18.3;;;;;;;-0.2;76.4;98940;;;;
2023/03/19 04:58:17;;;;;;;30;18.3;;;;;;;-0.3;76;98940;;;;
2023/03/19 05:09:17;;;;;;;35.3;21.5;;;;;;;-0.4;77;98930;;;;
2023/03/19 05:20:18;;;;;;;35.3;21.5;;;;;;;-0.3;76.9;98930;;;;
2023/03/19 05:30:17;;;;;;;35.3;21.5;;;;;;;-0.2;76.8;98930;;;;
2023/03/19 05:41:17;;;;;;;26.4;17.1;;;;;;;0.1;76.6;98940;;;;
2023/03/19 05:51:17;;;;;;;26.4;17.1;;;;;;;0.4;76.9;98930;;;;
2023/03/19 06:02:17;;;;;;;29.4;19.2;;;;;;;0.9;76.4;98930;;;;
2023/03/19 06:12:17;;;;;;;29.4;19.2;;;;;;;1.4;75.3;98930;;;;
2023/03/19 06:23:17;;;;;;;29.4;19.2;;;;;;;1.9;74.2;98950;;;;
2023/03/19 06:33:17;;;;;;;42.5;23.8;;;;;;;2.3;73.1;98960;;;;
2023/03/19 06:44:17;;;;;;;42.5;23.8;;;;;;;2.9;71.4;98960;;;;
2023/03/19 06:54:17;;;;;;;42.5;23.8;;;;;;;3.4;70.5;98970;;;;
2023/03/19 07:04:17;;;;;;;33.2;21.3;;;;;;;4;69.5;98960;;;;
2023/03/19 07:15:20;;;;;;;33.2;21.3;;;;;;;4.8;67.6;98960;;;;
2023/03/19 07:26:17;;;;;;;33.2;21.3;;;;;;;5.5;66.3;98970;;;;
2023/03/19 07:36:17;;;;;;;39.7;25.4;;;;;;;6.1;64.9;98950;;;;
2023/03/19 07:46:17;;;;;;;39.7;25.4;;;;;;;6.7;62;98960;;;;
2023/03/19 07:56:18;;;;;;;39.7;25.4;;;;;;;7.4;61.2;98950;;;;
2023/03/19 08:07:18;;;;;;;26.5;20.5;;;;;;;8.3;59.4;98930;;;;
2023/03/19 08:18:17;;;;;;;26.5;20.5;;;;;;;9.3;56.9;98920;;;;
2023/03/19 08:28:17;;;;;;;26.5;20.5;;;;;;;10;55.7;98920;;;;
2023/03/19 08:38:18;;;;;;;21.4;17.5;;;;;;;10.7;54;98910;;;;
2023/03/19 08:49:18;;;;;;;21.4;17.5;;;;;;;11.4;51.6;98920;;;;
2023/03/19 09:00:18;;;;;;;21.4;17.5;;;;;;;11.8;50;98910;;;;
2023/03/19 09:11:17;;;;;;;13.4;10.2;;;;;;;12.4;48.3;98910;;;;
2023/03/19 09:22:17;;;;;;;13.4;10.2;;;;;;;12.7;45.6;98900;;;;
2023/03/19 09:32:17;;;;;;;11.1;9;;;;;;;13.2;45.2;98890;;;;
2023/03/19 09:43:17;;;;;;;11.1;9;;;;;;;13.6;42.7;98880;;;;
2023/03/19 09:53:18;;;;;;;11.1;9;;;;;;;14.2;40.8;98870;;;;
2023/03/19 10:04:17;;;;;;;9.6;6.4;;;;;;;15;42.9;98870;;;;
2023/03/19 10:14:17;;;;;;;9.6;6.4;;;;;;;15.2;40.2;98860;;;;
2023/03/19 10:24:18;;;;;;;9.6;6.4;;;;;;;15.1;39.7;98850;;;;
2023/03/19 10:35:18;;;;;;;9.7;6.6;;;;;;;15.2;37.2;98840;;;;
2023/03/19 10:45:18;;;;;;;9.7;6.6;;;;;;;15.6;37.9;98830;;;;
2023/03/19 10:56:18;;;;;;;9.7;6.6;;;;;;;15.9;36.6;98810;;;;
2023/03/19 11:07:18;;;;;;;6.3;4.8;;;;;;;15.9;36.2;98800;;;;
2023/03/19 11:17:17;;;;;;;6.3;4.8;;;;;;;16.2;36.3;98790;;;;
2023/03/19 11:27:18;;;;;;;6.3;4.8;;;;;;;16.3;36.4;98780;;;;
2023/03/19 11:37:17;;;;;;;8.3;5.9;;;;;;;16.6;36;98770;;;;
2023/03/19 11:47:17;;;;;;;8.3;5.9;;;;;;;16.6;35.3;98750;;;;
2023/03/19 11:57:18;;;;;;;8.3;5.9;;;;;;;16.3;36.2;98740;;;;
2023/03/19 12:08:18;;;;;;;9.1;6;;;;;;;16.5;36.1;98740;;;;
2023/03/19 12:18:18;;;;;;;9.1;6;;;;;;;16.6;34.8;98720;;;;
2023/03/19 12:29:18;;;;;;;9.1;6;;;;;;;16.1;36.1;98720;;;;
2023/03/19 12:40:18;;;;;;;10.6;7.3;;;;;;;16.2;36.1;98700;;;;
2023/03/19 12:50:18;;;;;;;10.6;7.3;;;;;;;16.6;33.9;98690;;;;
2023/03/19 13:00:18;;;;;;;10.6;7.3;;;;;;;16.8;34.1;98680;;;;
2023/03/19 13:11:18;;;;;;;8.2;5.6;;;;;;;16.7;33.6;98680;;;;
2023/03/19 13:21:18;;;;;;;8.2;5.6;;;;;;;16.9;32.1;98670;;;;
2023/03/19 13:32:18;;;;;;;11;5.6;;;;;;;17.2;32.6;98660;;;;
2023/03/19 13:43:18;;;;;;;11;5.6;;;;;;;17.2;33.4;98650;;;;
2023/03/19 13:54:21;;;;;;;11;5.6;;;;;;;17.6;32.3;98650;;;;
2023/03/19 14:04:18;;;;;;;9;6.2;;;;;;;17.7;32.2;98640;;;;
2023/03/19 14:15:18;;;;;;;9;6.2;;;;;;;17.6;32.6;98640;;;;
2023/03/19 14:26:18;;;;;;;9;6.2;;;;;;;17.7;32.2;98640;;;;
2023/03/19 14:36:18;;;;;;;9.4;5.4;;;;;;;17.3;32.2;98640;;;;
2023/03/19 14:47:18;;;;;;;9.4;5.4;;;;;;;17;32.9;98640;;;;
2023/03/19 14:57:17;;;;;;;9.4;5.4;;;;;;;16.6;33.9;98640;;;;
2023/03/19 15:07:18;;;;;;;9.7;6.4;;;;;;;16.2;34.7;98640;;;;
2023/03/19 15:17:18;;;;;;;9.7;6.4;;;;;;;16.3;34.8;98640;;;;
2023/03/19 15:28:18;;;;;;;9.7;6.4;;;;;;;16.2;35.3;98630;;;;
2023/03/19 15:39:18;;;;;;;8.8;5.6;;;;;;;15.9;35.7;98640;;;;
2023/03/19 15:50:18;;;;;;;8.8;5.6;;;;;;;15.4;36.3;98650;;;;
2023/03/19 16:00:18;;;;;;;8.8;5.6;;;;;;;15.3;36.8;98650;;;;
2023/03/19 16:11:18;;;;;;;9.9;6.3;;;;;;;14.8;37.4;98660;;;;
2023/03/19 16:21:18;;;;;;;9.9;6.3;;;;;;;14.3;38.4;98670;;;;
2023/03/19 16:31:18;;;;;;;9.4;5.7;;;;;;;13.8;39.8;98680;;;;
2023/03/19 16:41:18;;;;;;;9.4;5.7;;;;;;;13.2;42.3;98680;;;;
2023/03/19 16:51:18;;;;;;;9.4;5.7;;;;;;;12.6;43.5;98680;;;;
2023/03/19 17:02:18;;;;;;;11.4;7.1;;;;;;;11.9;44.8;98700;;;;
2023/03/19 17:12:18;;;;;;;11.4;7.1;;;;;;;11.4;46.4;98710;;;;
2023/03/19 17:22:18;;;;;;;11.4;7.1;;;;;;;10.8;47.6;98710;;;;
2023/03/19 17:33:18;;;;;;;15.8;9.2;;;;;;;10.4;49;98710;;;;
2023/03/19 17:43:18;;;;;;;15.8;9.2;;;;;;;10.1;50.1;98710;;;;
2023/03/19 17:54:18;;;;;;;15.8;9.2;;;;;;;9.8;50.7;98720;;;;
2023/03/19 18:05:18;;;;;;;14.1;10.1;;;;;;;9.5;51.2;98710;;;;
2023/03/19 18:15:18;;;;;;;14.1;10.1;;;;;;;9.1;51.6;98720;;;;
2023/03/19 18:26:18;;;;;;;14.1;10.1;;;;;;;8.6;54.4;98730;;;;
2023/03/19 18:37:18;;;;;;;23.3;16;;;;;;;8.2;56.8;98740;;;;
2023/03/19 18:47:18;;;;;;;23.3;16;;;;;;;8;56.1;98740;;;;
2023/03/19 18:58:18;;;;;;;23.3;16;;;;;;;7.6;56.6;98750;;;;
2023/03/19 19:09:18;;;;;;;91.8;45.7;;;;;;;7.4;56.3;98740;;;;
2023/03/19 19:20:18;;;;;;;91.8;45.7;;;;;;;7.2;58.2;98750;;;;
2023/03/19 19:30:18;;;;;;;91.8;45.7;;;;;;;7;57.3;98750;;;;
2023/03/19 19:40:19;;;;;;;104.1;60.7;;;;;;;6.8;57.8;98760;;;;
2023/03/19 19:51:18;;;;;;;104.1;60.7;;;;;;;6.6;58.2;98760;;;;
2023/03/19 20:01:18;;;;;;;30.9;18.7;;;;;;;6.4;58.9;98770;;;;
2023/03/19 20:11:18;;;;;;;30.9;18.7;;;;;;;6.3;59.5;98770;;;;
2023/03/19 20:22:18;;;;;;;30.9;18.7;;;;;;;6.1;61.1;98770;;;;
2023/03/19 20:32:18;;;;;;;38.9;21.2;;;;;;;5.9;62.5;98770;;;;
2023/03/19 20:43:18;;;;;;;38.9;21.2;;;;;;;5.7;63.9;98770;;;;
2023/03/19 20:53:18;;;;;;;38.9;21.2;;;;;;;5.6;64.2;98760;;;;
2023/03/19 21:03:18;;;;;;;44.6;24.5;;;;;;;5.6;64.5;98760;;;;
2023/03/19 21:14:19;;;;;;;44.6;24.5;;;;;;;5.5;64.7;98770;;;;
2023/03/19 21:24:18;;;;;;;44.6;24.5;;;;;;;5.4;66.9;98770;;;;
2023/03/19 21:35:18;;;;;;;34.8;20.7;;;;;;;5.3;66.3;98780;;;;
2023/03/19 21:46:18;;;;;;;34.8;20.7;;;;;;;5.6;66.2;98780;;;;
2023/03/19 21:57:18;;;;;;;34.8;20.7;;;;;;;5.7;66.1;98780;;;;
2023/03/19 22:08:19;;;;;;;31.8;19.6;;;;;;;5.5;66.6;98780;;;;
2023/03/19 22:18:18;;;;;;;31.8;19.6;;;;;;;5.4;66.7;98770;;;;
2023/03/19 22:29:18;;;;;;;31.8;19.6;;;;;;;5.5;67.3;98760;;;;
2023/03/19 22:39:18;;;;;;;32.1;18.7;;;;;;;5.8;67.5;98760;;;;
2023/03/19 22:50:18;;;;;;;32.1;18.7;;;;;;;5.9;67.6;98760;;;;
2023/03/19 23:00:18;;;;;;;25.8;15.7;;;;;;;6.1;67;98760;;;;
2023/03/19 23:10:18;;;;;;;25.8;15.7;;;;;;;6.2;66.8;98770;;;;
2023/03/19 23:21:18;;;;;;;25.8;15.7;;;;;;;6.3;67;98760;;;;
2023/03/19 23:32:18;;;;;;;25.1;15.3;;;;;;;6.6;66.8;98760;;;;
2023/03/19 23:43:18;;;;;;;25.1;15.3;;;;;;;6.7;66;98750;;;;
2023/03/19 23:53:18;;;;;;;25.1;15.3;;;;;;;6.6;65.9;98750;;;;
